sensor_id;sensor_type;location;lat;lon;timestamp;pressure;altitude;pressure_sealevel;temperature;humidity
64628;BME280;68467;50.960;0.314;2023-11-21T12:30:55;100478.32;;;9.66;100.00
64628;BME280;68467;50.960;0.314;2023-11-21T12:33:22;100480.79;;;8.52;100.00
64628;BME280;68467;50.960;0.314;2023-11-21T12:35:49;100486.89;;;9.58;100.00
64628;BME280;68467;50.960;0.314;2023-11-21T12:38:16;100496.16;;;9.86;100.00
64628;BME280;68467;50.960;0.314;2023-11-21T12:40:44;100497.42;;;9.71;100.00
64628;BME280;68467;50.960;0.314;2023-11-21T12:43:11;100498.15;;;10.41;100.00
64628;BME280;68467;50.960;0.314;2023-11-21T12:45:39;100503.49;;;11.07;100.00
64628;BME280;68467;50.960;0.314;2023-11-21T12:48:06;100510.48;;;11.25;100.00
64628;BME280;68467;50.960;0.314;2023-11-21T12:50:35;100518.59;;;11.07;100.00
64628;BME280;68467;50.960;0.314;2023-11-21T12:53:05;100523.39;;;11.65;100.00
64628;BME280;68467;50.960;0.314;2023-11-21T12:55:34;100526.22;;;10.64;100.00
64628;BME280;68467;50.960;0.314;2023-11-21T12:58:02;100527.34;;;11.52;100.00
64628;BME280;68467;50.960;0.314;2023-11-21T13:00:34;100530.41;;;10.92;100.00
64628;BME280;68467;50.960;0.314;2023-11-21T13:03:01;100532.15;;;10.77;100.00
64628;BME280;68467;50.960;0.314;2023-11-21T13:05:31;100531.44;;;10.20;100.00
64628;BME280;68467;50.960;0.314;2023-11-21T13:07:59;100528.08;;;10.54;100.00
64628;BME280;68467;50.960;0.314;2023-11-21T13:10:27;100532.34;;;10.59;100.00
64628;BME280;68467;50.960;0.314;2023-11-21T13:12:55;100533.37;;;10.41;100.00
64628;BME280;68467;50.960;0.314;2023-11-21T13:15:23;100537.30;;;10.36;100.00
64628;BME280;68467;50.960;0.314;2023-11-21T13:17:50;100543.49;;;9.37;100.00
64628;BME280;68467;50.960;0.314;2023-11-21T13:20:18;100541.30;;;10.18;100.00
64628;BME280;68467;50.960;0.314;2023-11-21T13:22:48;100540.39;;;10.74;100.00
64628;BME280;68467;50.960;0.314;2023-11-21T13:25:15;100539.18;;;10.62;100.00
64628;BME280;68467;50.960;0.314;2023-11-21T13:27:45;100548.84;;;10.17;100.00
64628;BME280;68467;50.960;0.314;2023-11-21T13:30:13;100554.92;;;9.90;100.00
64628;BME280;68467;50.960;0.314;2023-11-21T13:32:41;100551.54;;;10.35;100.00
64628;BME280;68467;50.960;0.314;2023-11-21T13:35:08;100551.74;;;9.56;100.00
64628;BME280;68467;50.960;0.314;2023-11-21T13:37:35;100554.87;;;10.24;100.00
64628;BME280;68467;50.960;0.314;2023-11-21T13:40:03;100555.75;;;10.64;100.00
64628;BME280;68467;50.960;0.314;2023-11-21T13:42:30;100559.42;;;9.80;100.00
64628;BME280;68467;50.960;0.314;2023-11-21T13:44:58;100560.85;;;10.35;100.00
64628;BME280;68467;50.960;0.314;2023-11-21T13:47:25;100562.03;;;10.22;100.00
64628;BME280;68467;50.960;0.314;2023-11-21T13:49:52;100565.61;;;10.41;100.00
64628;BME280;68467;50.960;0.314;2023-11-21T13:52:19;100558.18;;;10.35;100.00
64628;BME280;68467;50.960;0.314;2023-11-21T13:54:46;100561.64;;;10.59;100.00
64628;BME280;68467;50.960;0.314;2023-11-21T13:57:13;100563.13;;;9.94;100.00
64628;BME280;68467;50.960;0.314;2023-11-21T13:59:40;100561.33;;;10.15;100.00
64628;BME280;68467;50.960;0.314;2023-11-21T14:02:07;100559.55;;;10.07;100.00
64628;BME280;68467;50.960;0.314;2023-11-21T14:04:35;100563.69;;;10.58;100.00
64628;BME280;68467;50.960;0.314;2023-11-21T14:07:02;100565.73;;;11.22;100.00
64628;BME280;68467;50.960;0.314;2023-11-21T14:09:29;100562.31;;;10.72;100.00
64628;BME280;68467;50.960;0.314;2023-11-21T14:11:57;100567.00;;;11.12;100.00
64628;BME280;68467;50.960;0.314;2023-11-21T14:14:26;100571.38;;;10.61;100.00
64628;BME280;68467;50.960;0.314;2023-11-21T14:16:54;100573.00;;;11.02;100.00
64628;BME280;68467;50.960;0.314;2023-11-21T14:19:21;100573.85;;;11.30;100.00
64628;BME280;68467;50.960;0.314;2023-11-21T14:21:48;100567.61;;;11.32;100.00
64628;BME280;68467;50.960;0.314;2023-11-21T14:24:17;100569.46;;;11.50;100.00
64628;BME280;68467;50.960;0.314;2023-11-21T14:26:44;100569.27;;;10.91;100.00
64628;BME280;68467;50.960;0.314;2023-11-21T14:29:13;100571.33;;;11.58;100.00
64628;BME280;68467;50.960;0.314;2023-11-21T14:31:40;100572.54;;;11.69;100.00
64628;BME280;68467;50.960;0.314;2023-11-21T14:34:08;100573.84;;;11.05;100.00
64628;BME280;68467;50.960;0.314;2023-11-21T14:36:35;100570.84;;;11.65;100.00
64628;BME280;68467;50.960;0.314;2023-11-21T14:39:02;100567.47;;;11.19;100.00
64628;BME280;68467;50.960;0.314;2023-11-21T14:41:29;100565.60;;;11.57;100.00
64628;BME280;68467;50.960;0.314;2023-11-21T14:43:56;100574.01;;;11.42;100.00
64628;BME280;68467;50.960;0.314;2023-11-21T14:46:23;100574.27;;;10.84;100.00
64628;BME280;68467;50.960;0.314;2023-11-21T14:48:50;100577.47;;;10.67;100.00
64628;BME280;68467;50.960;0.314;2023-11-21T14:51:17;100581.83;;;10.93;100.00
64628;BME280;68467;50.960;0.314;2023-11-21T14:53:44;100578.35;;;10.98;100.00
64628;BME280;68467;50.960;0.314;2023-11-21T14:56:11;100582.60;;;10.74;100.00
64628;BME280;68467;50.960;0.314;2023-11-21T14:58:38;100585.90;;;11.00;100.00
64628;BME280;68467;50.960;0.314;2023-11-21T15:01:05;100598.42;;;10.95;100.00
64628;BME280;68467;50.960;0.314;2023-11-21T15:03:32;100604.25;;;11.49;100.00
64628;BME280;68467;50.960;0.314;2023-11-21T15:06:02;100602.25;;;11.75;100.00
64628;BME280;68467;50.960;0.314;2023-11-21T15:08:29;100602.01;;;11.75;100.00
64628;BME280;68467;50.960;0.314;2023-11-21T15:10:56;100607.00;;;10.88;100.00
64628;BME280;68467;50.960;0.314;2023-11-21T15:13:25;100611.86;;;11.13;100.00
64628;BME280;68467;50.960;0.314;2023-11-21T15:15:52;100618.29;;;10.96;100.00
64628;BME280;68467;50.960;0.314;2023-11-21T15:18:21;100628.77;;;10.39;100.00
64628;BME280;68467;50.960;0.314;2023-11-21T15:20:47;100630.63;;;10.24;100.00
64628;BME280;68467;50.960;0.314;2023-11-21T15:23:15;100646.67;;;9.76;100.00
64628;BME280;68467;50.960;0.314;2023-11-21T15:25:41;100648.12;;;9.57;100.00
64628;BME280;68467;50.960;0.314;2023-11-21T15:28:08;100652.80;;;9.52;100.00
64628;BME280;68467;50.960;0.314;2023-11-21T15:30:36;100661.47;;;9.25;100.00
64628;BME280;68467;50.960;0.314;2023-11-21T15:33:03;100665.22;;;9.20;100.00
64628;BME280;68467;50.960;0.314;2023-11-21T15:35:30;100673.91;;;8.97;100.00
64628;BME280;68467;50.960;0.314;2023-11-21T15:37:57;100684.88;;;8.74;100.00
64628;BME280;68467;50.960;0.314;2023-11-21T15:40:24;100689.11;;;9.00;100.00
64628;BME280;68467;50.960;0.314;2023-11-21T15:42:51;100692.26;;;9.14;100.00
64628;BME280;68467;50.960;0.314;2023-11-21T15:45:18;100696.88;;;9.61;100.00
64628;BME280;68467;50.960;0.314;2023-11-21T15:47:45;100697.59;;;9.62;100.00
64628;BME280;68467;50.960;0.314;2023-11-21T15:50:12;100696.10;;;10.23;100.00
64628;BME280;68467;50.960;0.314;2023-11-21T15:52:40;100695.33;;;10.24;100.00
64628;BME280;68467;50.960;0.314;2023-11-21T15:55:07;100698.85;;;8.92;100.00
64628;BME280;68467;50.960;0.314;2023-11-21T15:57:34;100708.32;;;9.23;100.00
64628;BME280;68467;50.960;0.314;2023-11-21T16:00:01;100706.09;;;9.00;100.00
64628;BME280;68467;50.960;0.314;2023-11-21T16:02:28;100703.16;;;9.53;100.00
64628;BME280;68467;50.960;0.314;2023-11-21T16:04:55;100705.99;;;9.44;100.00
64628;BME280;68467;50.960;0.314;2023-11-21T16:07:22;100711.84;;;8.84;100.00
64628;BME280;68467;50.960;0.314;2023-11-21T16:09:49;100717.02;;;9.23;100.00
64628;BME280;68467;50.960;0.314;2023-11-21T16:12:16;100723.42;;;9.15;100.00
64628;BME280;68467;50.960;0.314;2023-11-21T16:14:44;100722.56;;;9.56;100.00
64628;BME280;68467;50.960;0.314;2023-11-21T16:17:11;100731.77;;;8.56;100.00
64628;BME280;68467;50.960;0.314;2023-11-21T16:19:39;100729.69;;;8.39;100.00
64628;BME280;68467;50.960;0.314;2023-11-21T16:22:07;100735.05;;;8.53;100.00
64628;BME280;68467;50.960;0.314;2023-11-21T16:24:34;100740.00;;;8.83;100.00
64628;BME280;68467;50.960;0.314;2023-11-21T16:27:02;100736.32;;;8.64;100.00
64628;BME280;68467;50.960;0.314;2023-11-21T16:29:31;100737.02;;;9.17;100.00
64628;BME280;68467;50.960;0.314;2023-11-21T16:31:58;100742.43;;;8.08;100.00
64628;BME280;68467;50.960;0.314;2023-11-21T16:34:26;100743.40;;;8.58;100.00
64628;BME280;68467;50.960;0.314;2023-11-21T16:36:54;100743.28;;;9.07;100.00
64628;BME280;68467;50.960;0.314;2023-11-21T16:39:21;100750.35;;;8.17;100.00
64628;BME280;68467;50.960;0.314;2023-11-21T16:41:48;100752.29;;;8.39;100.00
64628;BME280;68467;50.960;0.314;2023-11-21T16:44:17;100755.41;;;8.20;100.00
64628;BME280;68467;50.960;0.314;2023-11-21T16:46:44;100766.40;;;8.14;100.00
64628;BME280;68467;50.960;0.314;2023-11-21T16:49:12;100767.90;;;8.12;100.00
64628;BME280;68467;50.960;0.314;2023-11-21T16:51:39;100777.28;;;8.77;100.00
64628;BME280;68467;50.960;0.314;2023-11-21T16:54:06;100775.18;;;8.63;100.00
64628;BME280;68467;50.960;0.314;2023-11-21T16:56:34;100780.71;;;7.98;100.00
64628;BME280;68467;50.960;0.314;2023-11-21T16:59:02;100792.94;;;8.43;100.00
64628;BME280;68467;50.960;0.314;2023-11-21T17:01:30;100801.32;;;8.68;100.00
64628;BME280;68467;50.960;0.314;2023-11-21T17:03:57;100803.64;;;8.63;100.00
64628;BME280;68467;50.960;0.314;2023-11-21T17:06:24;100804.20;;;8.97;100.00
64628;BME280;68467;50.960;0.314;2023-11-21T17:08:51;100804.60;;;8.44;100.00
64628;BME280;68467;50.960;0.314;2023-11-21T17:11:19;100811.99;;;9.14;100.00
64628;BME280;68467;50.960;0.314;2023-11-21T17:13:46;100816.79;;;8.43;100.00
64628;BME280;68467;50.960;0.314;2023-11-21T17:16:13;100825.07;;;8.44;100.00
64628;BME280;68467;50.960;0.314;2023-11-21T17:18:40;100834.98;;;8.06;100.00
64628;BME280;68467;50.960;0.314;2023-11-21T17:21:07;100843.99;;;8.11;100.00
64628;BME280;68467;50.960;0.314;2023-11-21T17:23:34;100853.24;;;8.47;100.00
64628;BME280;68467;50.960;0.314;2023-11-21T17:26:01;100853.66;;;8.49;100.00
64628;BME280;68467;50.960;0.314;2023-11-21T17:28:28;100863.58;;;8.59;100.00
64628;BME280;68467;50.960;0.314;2023-11-21T17:30:56;100867.49;;;8.64;100.00
64628;BME280;68467;50.960;0.314;2023-11-21T17:33:23;100881.53;;;8.41;100.00
64628;BME280;68467;50.960;0.314;2023-11-21T17:35:50;100883.06;;;8.02;100.00
64628;BME280;68467;50.960;0.314;2023-11-21T17:38:17;100884.80;;;7.57;100.00
64628;BME280;68467;50.960;0.314;2023-11-21T17:40:45;100889.50;;;8.06;100.00
64628;BME280;68467;50.960;0.314;2023-11-21T17:43:12;100888.82;;;8.16;100.00
64628;BME280;68467;50.960;0.314;2023-11-21T17:45:39;100894.49;;;7.92;100.00
64628;BME280;68467;50.960;0.314;2023-11-21T17:48:07;100901.36;;;8.32;100.00
64628;BME280;68467;50.960;0.314;2023-11-21T17:50:34;100907.71;;;8.24;100.00
64628;BME280;68467;50.960;0.314;2023-11-21T17:53:02;100910.59;;;7.58;100.00
64628;BME280;68467;50.960;0.314;2023-11-21T17:55:29;100913.92;;;8.24;100.00
64628;BME280;68467;50.960;0.314;2023-11-21T17:57:57;100904.30;;;8.39;100.00
64628;BME280;68467;50.960;0.314;2023-11-21T18:00:24;100900.61;;;8.21;100.00
64628;BME280;68467;50.960;0.314;2023-11-21T18:02:52;100910.25;;;8.59;100.00
64628;BME280;68467;50.960;0.314;2023-11-21T18:05:20;100922.75;;;8.58;100.00
64628;BME280;68467;50.960;0.314;2023-11-21T18:07:49;100939.47;;;8.30;100.00
64628;BME280;68467;50.960;0.314;2023-11-21T18:10:16;100947.01;;;7.75;100.00
64628;BME280;68467;50.960;0.314;2023-11-21T18:12:43;100940.40;;;8.12;100.00
64628;BME280;68467;50.960;0.314;2023-11-21T18:15:11;100938.48;;;8.42;100.00
64628;BME280;68467;50.960;0.314;2023-11-21T18:17:40;100940.07;;;8.10;100.00
64628;BME280;68467;50.960;0.314;2023-11-21T18:20:09;100954.41;;;7.29;100.00
64628;BME280;68467;50.960;0.314;2023-11-21T18:22:37;100953.88;;;8.48;100.00
64628;BME280;68467;50.960;0.314;2023-11-21T18:25:05;100960.32;;;7.91;100.00
64628;BME280;68467;50.960;0.314;2023-11-21T18:27:33;100964.20;;;7.43;100.00
64628;BME280;68467;50.960;0.314;2023-11-21T18:30:00;100960.95;;;8.47;100.00
64628;BME280;68467;50.960;0.314;2023-11-21T18:32:27;100958.05;;;8.78;100.00
64628;BME280;68467;50.960;0.314;2023-11-21T18:34:55;100960.55;;;8.52;100.00
64628;BME280;68467;50.960;0.314;2023-11-21T18:37:23;100968.14;;;8.71;100.00
64628;BME280;68467;50.960;0.314;2023-11-21T18:39:51;100961.16;;;8.46;100.00
64628;BME280;68467;50.960;0.314;2023-11-21T18:42:19;100962.11;;;8.46;100.00
64628;BME280;68467;50.960;0.314;2023-11-21T18:44:46;100965.03;;;8.59;100.00
64628;BME280;68467;50.960;0.314;2023-11-21T18:47:13;100968.15;;;8.41;100.00
64628;BME280;68467;50.960;0.314;2023-11-21T18:49:40;100969.03;;;8.59;100.00
64628;BME280;68467;50.960;0.314;2023-11-21T18:52:10;100965.12;;;8.43;100.00
64628;BME280;68467;50.960;0.314;2023-11-21T18:54:37;100965.54;;;8.24;100.00
64628;BME280;68467;50.960;0.314;2023-11-21T18:57:04;100966.07;;;8.72;100.00
64628;BME280;68467;50.960;0.314;2023-11-21T18:59:31;100962.38;;;8.94;100.00
64628;BME280;68467;50.960;0.314;2023-11-21T19:02:00;100962.95;;;8.13;100.00
64628;BME280;68467;50.960;0.314;2023-11-21T19:04:27;100969.49;;;8.11;100.00
64628;BME280;68467;50.960;0.314;2023-11-21T19:06:54;100967.24;;;7.80;100.00
64628;BME280;68467;50.960;0.314;2023-11-21T19:09:22;100969.07;;;7.76;100.00
64628;BME280;68467;50.960;0.314;2023-11-21T19:11:49;100964.35;;;7.72;100.00
64628;BME280;68467;50.960;0.314;2023-11-21T19:14:17;100970.84;;;7.52;100.00
64628;BME280;68467;50.960;0.314;2023-11-21T19:16:45;100971.61;;;7.86;100.00
64628;BME280;68467;50.960;0.314;2023-11-21T19:19:13;100978.35;;;7.70;100.00
64628;BME280;68467;50.960;0.314;2023-11-21T19:21:40;100979.60;;;8.15;100.00
64628;BME280;68467;50.960;0.314;2023-11-21T19:24:08;100982.93;;;7.63;100.00
64628;BME280;68467;50.960;0.314;2023-11-21T19:26:37;100980.82;;;8.09;100.00
64628;BME280;68467;50.960;0.314;2023-11-21T19:29:04;100982.86;;;8.04;100.00
64628;BME280;68467;50.960;0.314;2023-11-21T19:31:31;100984.89;;;8.65;100.00
64628;BME280;68467;50.960;0.314;2023-11-21T19:33:58;100989.89;;;7.95;100.00
64628;BME280;68467;50.960;0.314;2023-11-21T19:36:26;100997.85;;;7.70;100.00
64628;BME280;68467;50.960;0.314;2023-11-21T19:38:53;100996.95;;;8.00;100.00
64628;BME280;68467;50.960;0.314;2023-11-21T19:41:22;100994.12;;;7.73;100.00
64628;BME280;68467;50.960;0.314;2023-11-21T19:43:50;100986.66;;;7.56;100.00
64628;BME280;68467;50.960;0.314;2023-11-21T19:46:17;100992.85;;;7.69;100.00
64628;BME280;68467;50.960;0.314;2023-11-21T19:48:44;100995.83;;;7.36;100.00
64628;BME280;68467;50.960;0.314;2023-11-21T19:51:14;101000.47;;;7.20;100.00
64628;BME280;68467;50.960;0.314;2023-11-21T19:53:41;101001.91;;;7.39;100.00
64628;BME280;68467;50.960;0.314;2023-11-21T19:56:08;101001.76;;;8.13;100.00
64628;BME280;68467;50.960;0.314;2023-11-21T19:58:35;101000.83;;;7.11;100.00
64628;BME280;68467;50.960;0.314;2023-11-21T20:01:03;100999.83;;;6.90;100.00
64628;BME280;68467;50.960;0.314;2023-11-21T20:03:30;100993.52;;;7.38;100.00
64628;BME280;68467;50.960;0.314;2023-11-21T20:05:57;100986.85;;;7.58;100.00
64628;BME280;68467;50.960;0.314;2023-11-21T20:08:25;100985.23;;;7.65;100.00
64628;BME280;68467;50.960;0.314;2023-11-21T20:10:52;100994.66;;;6.88;100.00
64628;BME280;68467;50.960;0.314;2023-11-21T20:13:19;101011.97;;;6.78;100.00
64628;BME280;68467;50.960;0.314;2023-11-21T20:15:46;101022.87;;;7.01;100.00
64628;BME280;68467;50.960;0.314;2023-11-21T20:18:13;101016.53;;;7.18;100.00
64628;BME280;68467;50.960;0.314;2023-11-21T20:20:40;101020.22;;;7.15;100.00
64628;BME280;68467;50.960;0.314;2023-11-21T20:23:07;101019.68;;;7.55;100.00
64628;BME280;68467;50.960;0.314;2023-11-21T20:25:34;101020.85;;;7.49;100.00
64628;BME280;68467;50.960;0.314;2023-11-21T20:28:02;101024.39;;;7.57;100.00
64628;BME280;68467;50.960;0.314;2023-11-21T20:30:30;101041.71;;;7.14;100.00
64628;BME280;68467;50.960;0.314;2023-11-21T20:32:57;101051.99;;;7.32;100.00
64628;BME280;68467;50.960;0.314;2023-11-21T20:35:24;101063.17;;;7.37;100.00
64628;BME280;68467;50.960;0.314;2023-11-21T20:37:52;101072.43;;;7.35;100.00
64628;BME280;68467;50.960;0.314;2023-11-21T20:40:19;101078.40;;;7.48;100.00
64628;BME280;68467;50.960;0.314;2023-11-21T20:42:46;101085.22;;;7.82;100.00
64628;BME280;68467;50.960;0.314;2023-11-21T20:45:13;101089.63;;;8.64;100.00
64628;BME280;68467;50.960;0.314;2023-11-21T20:47:42;101085.90;;;8.48;100.00
64628;BME280;68467;50.960;0.314;2023-11-21T20:50:10;101081.18;;;7.85;100.00
64628;BME280;68467;50.960;0.314;2023-11-21T20:52:37;101083.67;;;7.86;100.00
64628;BME280;68467;50.960;0.314;2023-11-21T20:55:06;101087.20;;;7.82;100.00
64628;BME280;68467;50.960;0.314;2023-11-21T20:57:34;101089.22;;;7.69;100.00
64628;BME280;68467;50.960;0.314;2023-11-21T21:00:01;101084.32;;;7.43;100.00
64628;BME280;68467;50.960;0.314;2023-11-21T21:02:28;101082.02;;;7.60;100.00
64628;BME280;68467;50.960;0.314;2023-11-21T21:04:55;101088.78;;;7.51;100.00
64628;BME280;68467;50.960;0.314;2023-11-21T21:07:22;101091.33;;;7.44;100.00
64628;BME280;68467;50.960;0.314;2023-11-21T21:09:50;101086.11;;;7.19;100.00
64628;BME280;68467;50.960;0.314;2023-11-21T21:12:17;101084.58;;;7.36;100.00
64628;BME280;68467;50.960;0.314;2023-11-21T21:14:45;101093.25;;;7.22;100.00
64628;BME280;68467;50.960;0.314;2023-11-21T21:17:12;101099.12;;;6.59;100.00
64628;BME280;68467;50.960;0.314;2023-11-21T21:19:38;101094.98;;;6.97;100.00
64628;BME280;68467;50.960;0.314;2023-11-21T21:22:06;101087.34;;;7.21;100.00
64628;BME280;68467;50.960;0.314;2023-11-21T21:24:34;101092.89;;;7.81;100.00
64628;BME280;68467;50.960;0.314;2023-11-21T21:27:01;101095.12;;;7.66;100.00
64628;BME280;68467;50.960;0.314;2023-11-21T21:29:28;101093.87;;;7.57;100.00
64628;BME280;68467;50.960;0.314;2023-11-21T21:31:55;101097.75;;;8.19;100.00
64628;BME280;68467;50.960;0.314;2023-11-21T21:34:23;101108.78;;;7.51;100.00
64628;BME280;68467;50.960;0.314;2023-11-21T21:36:49;101117.14;;;7.09;100.00
64628;BME280;68467;50.960;0.314;2023-11-21T21:39:16;101112.30;;;7.44;100.00
64628;BME280;68467;50.960;0.314;2023-11-21T21:41:43;101109.93;;;8.05;100.00
64628;BME280;68467;50.960;0.314;2023-11-21T21:44:11;101117.77;;;7.77;100.00
64628;BME280;68467;50.960;0.314;2023-11-21T21:46:38;101122.30;;;7.88;100.00
64628;BME280;68467;50.960;0.314;2023-11-21T21:49:06;101119.00;;;7.45;100.00
64628;BME280;68467;50.960;0.314;2023-11-21T21:51:32;101121.19;;;7.07;100.00
64628;BME280;68467;50.960;0.314;2023-11-21T21:54:00;101119.01;;;7.65;100.00
64628;BME280;68467;50.960;0.314;2023-11-21T21:56:27;101130.39;;;7.43;100.00
64628;BME280;68467;50.960;0.314;2023-11-21T21:58:53;101132.60;;;7.41;100.00
64628;BME280;68467;50.960;0.314;2023-11-21T22:01:21;101131.60;;;7.67;100.00
64628;BME280;68467;50.960;0.314;2023-11-21T22:03:48;101125.73;;;7.81;100.00
64628;BME280;68467;50.960;0.314;2023-11-21T22:06:15;101124.02;;;8.11;100.00
64628;BME280;68467;50.960;0.314;2023-11-21T22:08:42;101130.10;;;8.03;100.00
64628;BME280;68467;50.960;0.314;2023-11-21T22:11:09;101126.82;;;7.99;100.00
64628;BME280;68467;50.960;0.314;2023-11-21T22:13:37;101125.48;;;8.14;100.00
64628;BME280;68467;50.960;0.314;2023-11-21T22:16:04;101125.74;;;7.71;100.00
64628;BME280;68467;50.960;0.314;2023-11-21T22:18:31;101130.38;;;7.41;100.00
64628;BME280;68467;50.960;0.314;2023-11-21T22:20:58;101124.97;;;7.23;100.00
64628;BME280;68467;50.960;0.314;2023-11-21T22:23:25;101129.80;;;7.37;100.00
64628;BME280;68467;50.960;0.314;2023-11-21T22:25:53;101128.36;;;7.52;100.00
64628;BME280;68467;50.960;0.314;2023-11-21T22:28:20;101125.20;;;7.49;100.00
64628;BME280;68467;50.960;0.314;2023-11-21T22:30:47;101125.69;;;7.39;100.00
64628;BME280;68467;50.960;0.314;2023-11-21T22:33:14;101133.83;;;7.64;100.00
64628;BME280;68467;50.960;0.314;2023-11-21T22:35:41;101143.15;;;8.11;100.00
64628;BME280;68467;50.960;0.314;2023-11-21T22:38:08;101144.22;;;7.47;100.00
64628;BME280;68467;50.960;0.314;2023-11-21T22:40:35;101149.38;;;7.49;100.00
64628;BME280;68467;50.960;0.314;2023-11-21T22:43:02;101151.33;;;8.47;100.00
64628;BME280;68467;50.960;0.314;2023-11-21T22:45:29;101156.04;;;7.20;100.00
64628;BME280;68467;50.960;0.314;2023-11-21T22:47:57;101168.60;;;7.15;100.00
64628;BME280;68467;50.960;0.314;2023-11-21T22:50:24;101176.40;;;7.26;100.00
64628;BME280;68467;50.960;0.314;2023-11-21T22:52:51;101174.16;;;7.11;100.00
64628;BME280;68467;50.960;0.314;2023-11-21T22:55:18;101174.15;;;7.26;100.00
64628;BME280;68467;50.960;0.314;2023-11-21T22:57:45;101173.88;;;7.34;100.00
64628;BME280;68467;50.960;0.314;2023-11-21T23:00:14;101175.87;;;7.87;100.00
64628;BME280;68467;50.960;0.314;2023-11-21T23:02:41;101185.10;;;7.46;100.00
64628;BME280;68467;50.960;0.314;2023-11-21T23:05:09;101189.66;;;7.55;100.00
64628;BME280;68467;50.960;0.314;2023-11-21T23:07:36;101183.88;;;7.67;100.00
64628;BME280;68467;50.960;0.314;2023-11-21T23:10:04;101185.75;;;6.85;100.00
64628;BME280;68467;50.960;0.314;2023-11-21T23:12:31;101182.59;;;6.92;100.00
64628;BME280;68467;50.960;0.314;2023-11-21T23:14:58;101178.69;;;7.16;100.00
64628;BME280;68467;50.960;0.314;2023-11-21T23:17:25;101177.30;;;6.66;100.00
64628;BME280;68467;50.960;0.314;2023-11-21T23:19:53;101176.21;;;7.01;100.00
64628;BME280;68467;50.960;0.314;2023-11-21T23:22:20;101174.83;;;6.96;100.00
64628;BME280;68467;50.960;0.314;2023-11-21T23:24:47;101178.63;;;5.95;100.00
64628;BME280;68467;50.960;0.314;2023-11-21T23:27:15;101169.73;;;6.67;100.00
64628;BME280;68467;50.960;0.314;2023-11-21T23:29:41;101165.52;;;6.39;100.00
64628;BME280;68467;50.960;0.314;2023-11-21T23:32:09;101169.08;;;6.53;100.00
64628;BME280;68467;50.960;0.314;2023-11-21T23:34:36;101175.28;;;6.94;100.00
64628;BME280;68467;50.960;0.314;2023-11-21T23:37:03;101176.37;;;6.58;100.00
64628;BME280;68467;50.960;0.314;2023-11-21T23:39:30;101180.37;;;7.20;100.00
64628;BME280;68467;50.960;0.314;2023-11-21T23:41:58;101178.84;;;7.21;100.00
64628;BME280;68467;50.960;0.314;2023-11-21T23:44:26;101180.59;;;7.06;100.00
64628;BME280;68467;50.960;0.314;2023-11-21T23:46:53;101179.97;;;7.60;100.00
64628;BME280;68467;50.960;0.314;2023-11-21T23:49:20;101183.46;;;7.43;100.00
64628;BME280;68467;50.960;0.314;2023-11-21T23:51:48;101190.43;;;7.29;100.00
64628;BME280;68467;50.960;0.314;2023-11-21T23:54:15;101197.95;;;6.47;100.00
64628;BME280;68467;50.960;0.314;2023-11-21T23:56:42;101191.15;;;7.78;100.00
64628;BME280;68467;50.960;0.314;2023-11-21T23:59:09;101190.10;;;6.93;100.00
